• Join FlightAware (Why Join?)
  • Login
  • US Flag 
05:10PM EDT


 

Airport Tracker/Info


-or-


 

Live Flight TrackerFlight Track Log ✈ GJS6221 ✈ 15-Aug-2013 ✈ CYUL - KLGA

Flight Track Log - Related Links

Times and Time Zones

All times are in EDT time to prevent confusion due to time zone crossing. See the GJS6221 flight status page for this flight to view local times or setup timezone preferences in your user account.

Time Position Orientation Groundspeed Altitude Reporting Facility
EDT Latitude Longitude Course Direction KTS MPH feet Rate Location/Type
07:17AM 45.4475 -73.7536 173° South 453 521 1,600  Level Boston Center
07:18AM 45.4053 -73.7939 214° Southwest 313 360 5,100 3,060 Climbing Boston Center
07:19AM 45.3506 -73.8547 218° Southwest 282 325 7,700 2,760 Climbing Boston Center
07:20AM 45.2794 -73.8853 197° South 269 310 11,200 3,000 Climbing Boston Center
07:21AM 45.1731 -73.8828 179° South 291 335 14,500 3,120 Climbing Boston Center
07:22AM 44.5411 -74.1014 173° South  Level FlightAware Approximate
07:22AM 45.0794 -73.8833 180° South 311 358 17,600  Level Boston Center
07:23AM 44.9858 -73.8753 177° South 334 384 20,100 2,340 Climbing Boston Center
07:24AM 44.8667 -73.8667 177° South 370 426 22,200 1,980 Climbing Montreal Center
07:25AM 44.7775 -73.8700 182° South 374 430 24,100 1,860 Climbing Boston Center
07:26AM 44.6692 -73.8675 179° South 387 445 26,100 1,920 Climbing Boston Center
07:27AM 44.5589 -73.8619 178° South 399 459 28,000 1,680 Climbing Boston Center
07:28AM 44.4422 -73.8589 179° South 409 471 29,500 1,320 Climbing Boston Center
07:29AM 44.3233 -73.8561 179° South 419 482 30,700 1,140 Climbing Boston Center
07:30AM 44.1900 -73.8531 179° South 425 489 31,800 600 Climbing Boston Center
07:31AM 44.0653 -73.8472 178° South 443 510 32,000 60 Climbing Boston Center
07:32AM 43.9422 -73.8442 179° South 443 510 32,000  Level Boston Center
07:33AM 43.8297 -73.8389 178° South 448 516 32,000 -180 Level Boston Center
07:34AM 43.7092 -73.8331 178° South 443 510 31,700 -540 Descending Boston Center
07:35AM 43.5861 -73.8331 180° South 443 510 31,000 -720 Descending Boston Center
07:36AM 43.4631 -73.8275 178° South 438 504 30,300 -1,680 Descending Boston Center
07:37AM 43.3361 -73.8244 179° South 433 498 27,600 -2,760 Descending Boston Center
07:38AM 43.2256 -73.8219 179° South 420 483 24,900 -1,920 Descending Boston Center
07:39AM 43.1153 -73.8167 178° South 401 461 23,800 -1,080 Descending Boston Center
07:40AM 43.0131 -73.8144 179° South 389 448 22,800 -840 Descending Boston Center
07:41AM 42.9047 -73.8119 179° South 384 442 22,000 -420 Descending Boston Center
07:42AM 42.7800 -73.8036 177° South 384 442 22,000 -120 Level Boston Center
07:43AM 42.6717 -73.7928 176° South 384 442 21,800 -600 Descending Boston Center
07:44AM 42.5844 -73.7739 171° South 384 442 20,800 -1,020 Descending Boston Center
07:45AM 42.4783 -73.7547 172° South 379 436 19,800 -1,020 Descending Boston Center
07:46AM 42.3744 -73.7272 169° South 379 436 18,800 -840 Descending Boston Center
07:47AM 42.2600 -73.7025 171° South 379 436 18,200 -420 Descending Boston Center
07:48AM 42.1683 -73.6894 174° South 379 436 18,000 -120 Descending Boston Center
07:49AM 42.0558 -73.6872 179° South 373 429 18,000  Level Boston Center
07:50AM 41.9636 -73.7383 202° Southwest 363 418 18,000 -360 Level Boston Center
07:51AM 41.8819 -73.7617 192° South 346 398 17,400 -1,140 Descending Boston Center
07:52AM 41.7881 -73.7906 193° South 329 379 15,800 -1,500 Descending Boston Center
07:53AM 41.7106 -73.8111 191° South 324 373 14,400 -1,620 Descending Boston Center
07:54AM 41.6164 -73.8369 192° South 313 360 12,700 -1,680 Descending Boston Center
07:55AM 41.5000 -73.8667 191° South 298 343 10,800 -1,560 Descending New York TRACON
07:56AM 41.4333 -73.8667 180° South 299 344 9,300 -1,380 Descending New York TRACON
07:57AM 41.3500 -73.8167 156° South 295 339 8,100 -720 Descending New York TRACON
07:58AM 41.3000 -73.7667 143° Southeast 287 330 8,000 -60 Descending New York TRACON
07:59AM 41.2333 -73.7000 143° Southeast 295 339 8,000 -180 Level New York TRACON
08:00AM 41.1667 -73.6500 151° Southeast 298 343 7,700 -960 Descending New York TRACON
08:01AM 41.0833 -73.6167 163° South 277 319 6,100 -1,680 Descending New York TRACON
08:02AM 41.0167 -73.5833 159° South 271 312 4,400 -1,080 Descending New York TRACON
08:03AM 40.9500 -73.5667 169° South 272 313 4,000 -240 Descending New York TRACON
08:04AM 40.8833 -73.6167 210° Southwest 272 313 4,000 -300 Level New York TRACON
08:05AM 40.8167 -73.6667 210° Southwest 253 291 3,400 -900 Descending New York TRACON
08:06AM 40.7833 -73.7333 237° Southwest 209 241 2,200 -1,020 Descending New York TRACON
08:07AM 40.7667 -73.7833 246° West 161 185 1,400 -840 Descending New York TRACON
08:08AM 40.7500 -73.8333 246° West 124 143 600 -840 Descending New York TRACON
08:10AM 40.7667 -73.8667 270° West  Level FlightAware Approximate
08:17AM 40.7772 -73.8726 270° West  Level Estimated
08:18AM 40.7772 -73.8726 270° West  Level Estimated
08:19AM 40.7772 -73.8726 270° West  Level Estimated